Time;durP1;ratioP1;P1;durP2;ratioP2;P2;SDS_P1;SDS_P2;PMS_P1;PMS_P2;Temp;Humidity;BMP_temperature;BMP_pressure;BME280_temperature;BME280_humidity;BME280_pressure;Samples;Min_cycle;Max_cycle;Signal;HPM_P1;HPM_P2
2022/08/10 00:01:39;;;;;;;1.83;1.20;;;;;;;22.05;41.90;99339.25;5098191;28;20043;-70
2022/08/10 00:04:05;;;;;;;2.08;1.27;;;;;;;22.12;41.96;99350.03;5098242;28;20023;-70
2022/08/10 00:06:31;;;;;;;2.28;1.10;;;;;;;22.04;42.13;99347.78;5078878;28;20034;-70
2022/08/10 00:08:56;;;;;;;3.63;1.30;;;;;;;22.06;42.22;99349.19;5105646;28;20119;-71
2022/08/10 00:11:22;;;;;;;3.33;1.15;;;;;;;22.03;42.47;99349.72;5087499;28;20024;-70
2022/08/10 00:13:47;;;;;;;1.95;1.00;;;;;;;21.95;42.67;99346.63;5099521;28;20078;-70
2022/08/10 00:16:13;;;;;;;3.75;1.10;;;;;;;21.90;42.91;99352.91;5106714;28;20011;-70
2022/08/10 00:18:38;;;;;;;3.22;1.40;;;;;;;21.83;42.99;99349.56;5102103;28;20063;-70
2022/08/10 00:21:06;;;;;;;1.20;0.98;;;;;;;21.81;43.17;99360.00;5092120;28;20028;-70
2022/08/10 00:23:32;;;;;;;2.08;1.02;;;;;;;21.67;43.13;99337.59;5083135;28;20046;-71
2022/08/10 00:25:57;;;;;;;4.75;1.15;;;;;;;21.85;43.01;99350.97;5083196;28;20054;-71
2022/08/10 00:28:23;;;;;;;2.28;1.23;;;;;;;21.72;43.07;99334.03;5102172;28;22317;-71
2022/08/10 00:30:48;;;;;;;6.13;1.45;;;;;;;21.74;43.42;99351.97;5100328;28;20161;-70
2022/08/10 00:33:14;;;;;;;2.53;1.15;;;;;;;21.70;43.50;99345.34;5106830;28;20489;-70
2022/08/10 00:35:39;;;;;;;1.42;1.00;;;;;;;21.71;43.40;99335.97;5095801;28;20032;-70
2022/08/10 00:38:04;;;;;;;4.22;1.33;;;;;;;21.65;43.53;99337.84;5095472;28;20028;-71
2022/08/10 00:40:30;;;;;;;3.92;1.27;;;;;;;21.61;43.61;99344.16;5095412;28;20027;-70
2022/08/10 00:42:55;;;;;;;2.95;1.30;;;;;;;21.54;43.84;99352.63;5100887;28;20027;-70
2022/08/10 00:45:20;;;;;;;2.47;1.10;;;;;;;21.56;43.90;99336.69;5100423;28;20130;-70
2022/08/10 00:47:46;;;;;;;1.83;1.10;;;;;;;21.57;43.94;99335.59;5109438;28;20019;-70
2022/08/10 00:50:11;;;;;;;1.90;1.23;;;;;;;21.55;44.04;99343.28;5106030;28;20539;-70
2022/08/10 00:52:37;;;;;;;1.75;1.30;;;;;;;21.47;44.20;99343.75;5100411;28;20039;-70
2022/08/10 00:55:04;;;;;;;2.15;1.40;;;;;;;21.45;44.17;99344.00;5102394;28;20157;-70
2022/08/10 00:57:31;;;;;;;2.80;1.27;;;;;;;21.26;44.53;99328.94;5095941;28;20020;-71
2022/08/10 00:59:56;;;;;;;1.88;1.33;;;;;;;21.21;44.67;99321.47;5115501;28;20023;-70
2022/08/10 01:02:21;;;;;;;2.00;1.15;;;;;;;21.32;44.71;99341.66;5122723;28;20092;-70
2022/08/10 01:04:47;;;;;;;3.35;1.45;;;;;;;21.21;44.64;99331.66;5121663;28;20028;-70
2022/08/10 01:07:24;;;;;;;1.90;1.23;;;;;;;21.27;44.71;99340.78;5104575;28;20027;-70
2022/08/10 01:10:33;;;;;;;3.53;1.15;;;;;;;21.16;45.13;99346.19;5119079;28;20087;-70
2022/08/10 01:13:12;;;;;;;2.38;1.23;;;;;;;21.16;45.05;99346.19;5002308;28;20545;-70
2022/08/10 01:15:49;;;;;;;4.25;1.17;;;;;;;21.16;45.16;99351.69;5007570;28;20034;-70
2022/08/10 01:18:35;;;;;;;2.60;1.20;;;;;;;21.11;45.39;99343.38;5076089;28;20071;-71
2022/08/10 01:21:22;;;;;;;2.25;1.33;;;;;;;21.13;45.46;99343.94;5102472;28;20114;-70
2022/08/10 01:24:21;;;;;;;1.92;1.23;;;;;;;21.11;45.49;99343.38;5087442;28;20651;-70
2022/08/10 01:27:23;;;;;;;2.08;1.20;;;;;;;21.09;45.54;99348.31;5097809;28;20031;-70
2022/08/10 01:30:08;;;;;;;1.73;1.30;;;;;;;21.05;45.53;99336.16;5098222;28;20391;-70
2022/08/10 01:33:00;;;;;;;4.88;1.55;;;;;;;21.07;45.66;99353.25;5103420;28;20023;-70
2022/08/10 01:36:10;;;;;;;1.67;1.23;;;;;;;21.04;45.76;99350.16;5085897;28;20114;-70
2022/08/10 01:38:39;;;;;;;4.07;1.00;;;;;;;20.96;46.05;99334.97;5014526;28;20124;-70
2022/08/10 01:41:08;;;;;;;2.92;1.30;;;;;;;20.93;46.09;99346.47;5070595;28;20489;-70
2022/08/10 01:43:45;;;;;;;2.20;1.30;;;;;;;20.92;46.11;99351.16;5100298;28;20047;-70
2022/08/10 01:46:14;;;;;;;2.55;1.23;;;;;;;20.87;46.13;99347.50;5100445;28;20035;-70
2022/08/10 01:48:46;;;;;;;1.40;1.10;;;;;;;20.78;46.33;99336.16;5098030;28;20494;-70
2022/08/10 01:51:22;;;;;;;3.80;1.20;;;;;;;20.77;46.22;99348.22;5099616;28;20081;-70
2022/08/10 01:53:57;;;;;;;2.15;1.08;;;;;;;20.76;46.56;99349.31;5098676;28;20036;-70
2022/08/10 01:56:25;;;;;;;3.55;1.10;;;;;;;20.72;46.53;99342.66;5098222;28;20046;-70
2022/08/10 01:58:55;;;;;;;2.63;1.38;;;;;;;20.70;46.58;99345.69;5096597;28;20038;-70
2022/08/10 02:01:24;;;;;;;1.23;1.13;;;;;;;20.66;46.79;99347.25;5100894;28;20027;-70
2022/08/10 02:03:53;;;;;;;1.73;1.10;;;;;;;20.66;46.91;99341.75;5092681;28;20043;-71
2022/08/10 02:06:21;;;;;;;2.28;1.27;;;;;;;20.69;46.70;99341.25;5093223;28;20019;-70
2022/08/10 02:08:48;;;;;;;2.75;1.10;;;;;;;20.72;46.83;99351.75;5099739;28;20057;-70
2022/08/10 02:11:15;;;;;;;2.88;1.35;;;;;;;20.76;46.59;99350.13;5101736;28;20031;-70
2022/08/10 02:13:43;;;;;;;3.20;1.40;;;;;;;20.81;46.61;99354.06;5103558;28;20026;-70
2022/08/10 02:16:10;;;;;;;2.95;1.50;;;;;;;20.79;46.59;99351.53;5092982;28;20099;-70
2022/08/10 02:18:36;;;;;;;2.90;1.30;;;;;;;20.72;46.76;99353.66;5078504;28;20484;-70
2022/08/10 02:21:07;;;;;;;2.88;1.20;;;;;;;20.64;47.01;99349.44;5096804;28;20046;-70
2022/08/10 02:23:36;;;;;;;2.28;1.33;;;;;;;20.64;46.99;99351.34;5097427;28;20047;-71
2022/08/10 02:26:04;;;;;;;2.40;1.35;;;;;;;20.59;46.89;99357.63;5098186;28;20122;-70
2022/08/10 02:28:32;;;;;;;3.28;1.20;;;;;;;20.56;47.00;99349.88;5101416;28;20020;-70
2022/08/10 02:31:17;;;;;;;1.30;1.10;;;;;;;20.45;47.15;99335.16;5094602;28;20035;-70
2022/08/10 02:33:46;;;;;;;2.85;1.67;;;;;;;20.54;47.16;99357.53;5101593;28;20055;-70
2022/08/10 02:36:12;;;;;;;2.55;1.40;;;;;;;20.56;47.10;99358.13;5099996;28;20040;-70
2022/08/10 02:38:46;;;;;;;7.07;1.45;;;;;;;20.53;47.27;99359.44;5101385;28;20042;-70
2022/08/10 02:41:24;;;;;;;3.08;1.42;;;;;;;20.48;47.35;99355.78;5096655;28;20027;-70
2022/08/10 02:43:56;;;;;;;1.70;1.20;;;;;;;20.42;47.50;99357.66;5090640;28;20054;-70
2022/08/10 02:46:38;;;;;;;2.80;1.20;;;;;;;20.39;47.52;99357.34;5094761;28;20032;-70
2022/08/10 02:49:05;;;;;;;3.83;1.27;;;;;;;20.34;47.73;99358.91;5093082;28;20496;-70
2022/08/10 02:51:43;;;;;;;1.88;1.30;;;;;;;20.29;47.78;99356.09;5095995;28;20055;-70
2022/08/10 02:54:16;;;;;;;3.47;1.27;;;;;;;20.18;47.88;99340.56;5100865;28;20374;-70
2022/08/10 02:57:09;;;;;;;1.55;1.30;;;;;;;20.14;48.19;99364.13;5094986;28;20036;-70
2022/08/10 02:59:41;;;;;;;5.47;1.40;;;;;;;20.01;48.20;99348.81;5082295;28;20519;-69
2022/08/10 03:02:13;;;;;;;3.90;1.42;;;;;;;20.03;48.58;99354.06;5103947;28;20119;-69
2022/08/10 03:04:44;;;;;;;2.10;1.33;;;;;;;19.85;48.87;99341.44;5074309;28;20166;-70
2022/08/10 03:07:12;;;;;;;1.48;1.23;;;;;;;19.95;48.78;99360.00;5088600;28;20485;-71
2022/08/10 03:09:40;;;;;;;2.77;1.40;;;;;;;19.90;48.65;99355.25;5116674;28;20712;-70
2022/08/10 03:12:07;;;;;;;3.78;1.45;;;;;;;19.88;48.95;99355.47;5102419;28;20035;-70
2022/08/10 03:14:36;;;;;;;1.70;1.25;;;;;;;19.75;49.18;99361.31;5105328;28;20030;-71
2022/08/10 03:17:02;;;;;;;1.88;1.20;;;;;;;19.71;49.27;99362.91;5081747;28;20028;-70
2022/08/10 03:19:30;;;;;;;4.07;1.38;;;;;;;19.64;49.32;99357.53;5106418;28;20069;-70
2022/08/10 03:21:57;;;;;;;2.13;1.30;;;;;;;19.62;49.58;99359.72;5103866;28;20452;-69
2022/08/10 03:24:24;;;;;;;2.85;1.30;;;;;;;19.56;49.78;99370.84;5098864;28;20027;-70
2022/08/10 03:26:52;;;;;;;1.60;1.13;;;;;;;19.43;50.33;99361.03;5103303;28;20493;-68
2022/08/10 03:29:19;;;;;;;2.60;1.30;;;;;;;19.43;50.50;99353.63;5085133;28;20027;-68
2022/08/10 03:31:45;;;;;;;4.03;1.73;;;;;;;19.49;50.97;99371.84;5103723;28;20104;-68
2022/08/10 03:34:11;;;;;;;2.95;1.30;;;;;;;19.32;50.61;99375.66;5100846;28;20053;-68
2022/08/10 03:36:37;;;;;;;2.05;1.10;;;;;;;19.19;50.84;99365.81;5101975;28;20028;-68
2022/08/10 03:39:02;;;;;;;2.75;1.50;;;;;;;19.08;51.93;99374.94;5099855;28;20031;-68
2022/08/10 03:41:39;;;;;;;2.40;1.42;;;;;;;18.83;51.89;99362.38;5102176;28;20015;-67
2022/08/10 03:44:06;;;;;;;4.63;1.48;;;;;;;18.51;52.75;99373.75;5104778;28;20449;-68
2022/08/10 03:46:34;;;;;;;3.03;1.30;;;;;;;18.44;53.12;99375.78;5101421;28;20423;-67
2022/08/10 03:49:02;;;;;;;3.80;1.50;;;;;;;18.47;53.28;99380.81;5094978;28;20027;-68
2022/08/10 03:51:28;;;;;;;2.25;1.40;;;;;;;18.39;53.70;99378.41;5102918;28;20783;-68
2022/08/10 03:53:54;;;;;;;2.08;1.25;;;;;;;18.15;54.32;99367.47;5105929;28;20389;-68
2022/08/10 03:56:21;;;;;;;1.50;1.30;;;;;;;18.02;55.16;99378.66;5100958;28;20135;-67
2022/08/10 03:58:46;;;;;;;5.22;1.65;;;;;;;17.84;55.53;99386.97;5107426;28;20029;-67
2022/08/10 04:01:14;;;;;;;4.63;1.60;;;;;;;17.54;56.45;99382.38;5098449;28;20024;-67
2022/08/10 04:03:39;;;;;;;3.95;1.58;;;;;;;17.47;57.65;99406.28;5100142;28;20049;-67
2022/08/10 04:06:05;;;;;;;3.38;1.55;;;;;;;17.22;59.66;99382.66;5099079;28;20551;-67
2022/08/10 04:08:31;;;;;;;3.38;1.30;;;;;;;17.17;58.79;99392.63;5092115;28;20028;-70
2022/08/10 04:10:57;;;;;;;5.82;1.30;;;;;;;17.02;61.32;99390.31;5094507;28;20030;-70
2022/08/10 04:13:22;;;;;;;2.58;1.50;;;;;;;16.85;62.54;99373.72;5096668;28;20426;-71
2022/08/10 04:15:48;;;;;;;1.48;1.30;;;;;;;16.93;62.00;99391.72;5105578;28;20388;-71
2022/08/10 04:18:13;;;;;;;4.88;1.60;;;;;;;16.78;62.51;99387.47;5102275;28;20469;-70
2022/08/10 04:20:47;;;;;;;6.47;1.70;;;;;;;16.82;65.08;99399.59;5101542;28;20039;-70
2022/08/10 04:23:20;;;;;;;2.15;1.73;;;;;;;16.81;65.64;99403.38;5105830;28;20133;-70
2022/08/10 04:25:45;;;;;;;2.63;1.65;;;;;;;16.72;63.60;99393.81;5100230;28;20035;-70
2022/08/10 04:28:11;;;;;;;2.65;1.80;;;;;;;16.75;64.11;99401.56;5100373;28;20469;-70
2022/08/10 04:30:38;;;;;;;6.65;1.63;;;;;;;16.75;62.54;99407.00;5096894;28;20708;-70
2022/08/10 04:33:06;;;;;;;3.35;1.80;;;;;;;16.79;62.81;99408.28;5104273;28;20125;-69
2022/08/10 04:35:33;;;;;;;1.58;1.40;;;;;;;16.78;62.50;99389.34;5094417;28;20477;-68
2022/08/10 04:38:01;;;;;;;1.85;1.40;;;;;;;16.84;62.40;99399.34;5081821;28;20401;-68
2022/08/10 04:40:27;;;;;;;2.83;1.60;;;;;;;16.84;63.46;99411.13;5101630;28;20076;-68
2022/08/10 04:42:52;;;;;;;2.10;1.40;;;;;;;16.91;63.28;99404.75;5105009;28;20035;-73
2022/08/10 04:45:18;;;;;;;4.20;1.50;;;;;;;16.80;61.86;99385.34;5100046;28;20027;-73
2022/08/10 04:47:43;;;;;;;3.33;1.75;;;;;;;16.98;63.85;99397.31;5101842;28;20111;-70
2022/08/10 04:50:09;;;;;;;2.08;1.33;;;;;;;17.09;63.61;99407.47;5098915;28;20107;-69
2022/08/10 04:52:34;;;;;;;3.53;1.83;;;;;;;17.25;64.27;99404.06;5098207;28;20043;-71
2022/08/10 04:55:00;;;;;;;2.95;1.70;;;;;;;17.27;65.13;99410.16;5097869;28;20039;-67
2022/08/10 04:57:25;;;;;;;2.10;1.65;;;;;;;17.34;64.11;99415.50;5098097;28;20106;-68
2022/08/10 04:59:51;;;;;;;6.03;1.50;;;;;;;17.36;64.17;99404.34;5109254;28;20110;-66
2022/08/10 05:02:17;;;;;;;5.20;1.40;;;;;;;17.37;66.68;99404.13;5081979;28;20510;-67
2022/08/10 05:04:42;;;;;;;3.15;1.58;;;;;;;17.37;63.02;99404.13;5097857;28;20051;-69
2022/08/10 05:07:10;;;;;;;1.55;1.45;;;;;;;17.40;61.59;99398.19;5092893;28;20032;-70
2022/08/10 05:09:37;;;;;;;2.50;1.53;;;;;;;17.44;60.93;99391.16;5098628;28;20053;-70
2022/08/10 05:12:03;;;;;;;2.30;1.50;;;;;;;17.70;60.14;99410.97;5097050;28;20031;-70
2022/08/10 05:14:28;;;;;;;4.78;1.58;;;;;;;17.86;59.81;99413.06;5099800;28;20838;-71
2022/08/10 05:16:54;;;;;;;3.67;1.13;;;;;;;17.93;59.35;99397.34;5102621;28;20038;-74
2022/08/10 05:19:19;;;;;;;2.35;1.40;;;;;;;18.09;58.84;99409.50;5095654;28;20030;-72
2022/08/10 05:21:45;;;;;;;2.63;1.42;;;;;;;18.22;59.00;99416.66;5081600;28;20514;-71
2022/08/10 05:24:10;;;;;;;1.33;1.08;;;;;;;18.42;57.15;99419.03;5092147;28;20028;-70
2022/08/10 05:26:35;;;;;;;2.55;1.52;;;;;;;18.57;57.53;99415.78;5100263;28;20062;-71
2022/08/10 05:29:01;;;;;;;2.03;1.33;;;;;;;18.76;58.06;99411.03;5105833;28;20036;-71
2022/08/10 05:31:26;;;;;;;5.97;1.50;;;;;;;19.10;55.10;99406.53;5116289;28;20036;-73
2022/08/10 05:33:52;;;;;;;4.10;1.33;;;;;;;19.25;55.46;99409.53;5102409;28;20109;-72
2022/08/10 05:36:18;;;;;;;3.63;1.30;;;;;;;19.88;51.33;99415.06;5096867;28;20062;-72
2022/08/10 05:38:45;;;;;;;3.92;1.45;;;;;;;20.22;50.56;99395.81;5095541;28;20031;-69
2022/08/10 05:41:10;;;;;;;5.10;1.33;;;;;;;20.67;49.38;99409.44;5096421;28;20032;-70
2022/08/10 05:43:36;;;;;;;2.22;1.38;;;;;;;20.84;49.85;99420.38;5101553;28;20031;-69
2022/08/10 05:46:01;;;;;;;1.80;1.20;;;;;;;21.15;47.18;99410.56;5105057;28;20081;-70
2022/08/10 05:48:26;;;;;;;3.03;1.20;;;;;;;21.42;46.77;99409.78;5098502;28;20031;-70
2022/08/10 05:50:52;;;;;;;2.85;1.20;;;;;;;21.61;45.68;99413.84;5098577;28;20103;-70
2022/08/10 05:53:17;;;;;;;1.90;1.02;;;;;;;21.72;45.37;99417.53;5104038;28;20021;-68
2022/08/10 05:55:42;;;;;;;2.30;1.10;;;;;;;21.88;45.56;99415.72;5095632;28;20023;-65
2022/08/10 05:58:08;;;;;;;2.15;1.10;;;;;;;22.01;44.49;99417.22;5096095;28;20043;-71
2022/08/10 06:00:37;;;;;;;1.35;1.00;;;;;;;22.04;44.20;99400.16;5099009;28;20030;-70
2022/08/10 06:03:06;;;;;;;4.43;1.10;;;;;;;22.20;43.94;99410.22;5096602;28;20027;-71
2022/08/10 06:05:35;;;;;;;2.35;1.13;;;;;;;22.27;43.74;99404.47;5099951;28;20684;-73
2022/08/10 06:08:02;;;;;;;4.50;0.77;;;;;;;22.40;43.53;99401.25;5100067;28;20038;-73
2022/08/10 06:10:29;;;;;;;1.55;1.20;;;;;;;22.56;43.16;99404.94;5100205;28;20063;-76
2022/08/10 06:15:42;;;;;;;2.05;1.13;;;;;;;22.95;42.18;99405.38;5094645;28;20133;-75
2022/08/10 06:18:08;;;;;;;1.52;0.95;;;;;;;22.94;41.50;99395.44;5098675;28;20027;-74
2022/08/10 06:20:34;;;;;;;2.97;0.90;;;;;;;23.37;41.15;99409.09;5101713;28;20026;-70
2022/08/10 06:23:01;;;;;;;2.95;1.05;;;;;;;24.16;40.10;99401.47;5098786;28;20023;-75
2022/08/10 06:25:29;;;;;;;2.65;1.02;;;;;;;25.27;37.94;99406.97;5095414;28;20051;-73
2022/08/10 06:27:56;;;;;;;4.43;1.10;;;;;;;26.63;35.28;99402.56;5081021;28;20097;-72
2022/08/10 06:30:22;;;;;;;2.83;1.20;;;;;;;28.07;33.72;99401.41;5097909;28;20511;-75
2022/08/10 06:32:50;;;;;;;3.80;1.10;;;;;;;27.49;33.55;99400.63;5098272;28;20031;-74
2022/08/10 06:35:16;;;;;;;6.25;1.15;;;;;;;29.03;32.28;99409.88;5084343;28;20024;-73
2022/08/10 06:37:43;;;;;;;3.13;1.08;;;;;;;29.76;31.06;99406.34;5099625;28;20043;-72
2022/08/10 06:40:10;;;;;;;4.55;1.00;;;;;;;30.82;29.10;99399.13;5089265;28;20024;-75
2022/08/10 06:42:39;;;;;;;2.08;1.00;;;;;;;30.97;28.60;99412.66;5100488;28;20026;-75
2022/08/10 06:45:11;;;;;;;2.80;1.15;;;;;;;31.13;28.51;99413.03;5102223;28;20032;-71
2022/08/10 06:47:47;;;;;;;2.20;0.98;;;;;;;30.74;29.00;99420.25;5077164;28;20019;-73
2022/08/10 06:50:17;;;;;;;5.72;1.08;;;;;;;31.27;28.40;99404.50;5092705;28;20145;-73
2022/08/10 06:52:45;;;;;;;1.65;0.90;;;;;;;33.61;25.51;99413.44;5095603;28;20032;-73
2022/08/10 06:55:13;;;;;;;2.70;0.93;;;;;;;34.31;25.25;99407.22;5091674;28;20035;-73
2022/08/10 06:57:40;;;;;;;1.90;1.00;;;;;;;33.89;25.59;99396.03;5075538;28;20024;-73
2022/08/10 07:00:06;;;;;;;2.17;0.82;;;;;;;34.23;25.07;99409.75;5098122;28;20028;-73
2022/08/10 07:02:57;;;;;;;1.50;1.00;;;;;;;34.81;24.45;99406.13;5093325;28;20499;-73
2022/08/10 07:05:27;;;;;;;3.08;1.02;;;;;;;35.02;24.02;99415.28;5076404;28;20119;-74
2022/08/10 07:07:56;;;;;;;1.85;0.90;;;;;;;34.52;24.35;99407.13;5094409;28;20047;-73
2022/08/10 07:10:24;;;;;;;1.80;1.00;;;;;;;33.43;25.80;99412.72;5097210;28;20016;-76
2022/08/10 07:12:51;;;;;;;1.92;0.90;;;;;;;33.99;25.44;99415.28;5097189;28;20099;-74
2022/08/10 07:15:18;;;;;;;1.42;0.82;;;;;;;33.54;25.78;99416.00;5095217;28;20024;-72
2022/08/10 07:17:45;;;;;;;3.88;1.20;;;;;;;33.51;25.63;99413.81;5098962;28;20027;-74
2022/08/10 07:20:16;;;;;;;3.45;0.85;;;;;;;33.05;25.80;99412.81;5090977;28;20386;-74
2022/08/10 07:22:44;;;;;;;1.70;0.98;;;;;;;32.43;26.78;99411.38;5101896;28;20032;-70
2022/08/10 07:25:13;;;;;;;1.40;0.90;;;;;;;32.03;26.93;99415.25;5097529;28;20027;-70
2022/08/10 07:27:40;;;;;;;1.65;0.90;;;;;;;31.08;28.49;99406.78;5078838;28;20035;-69
2022/08/10 07:30:07;;;;;;;10.82;1.45;;;;;;;31.45;28.11;99413.75;5096068;28;20032;-68
2022/08/10 07:32:33;;;;;;;2.72;1.05;;;;;;;32.53;26.96;99411.88;5100512;28;20428;-71
2022/08/10 07:35:00;;;;;;;1.80;1.08;;;;;;;32.88;26.54;99420.16;5094202;28;20035;-71
2022/08/10 07:37:29;;;;;;;3.70;1.10;;;;;;;33.30;25.90;99409.03;5103693;28;20111;-68
2022/08/10 07:39:54;;;;;;;;;;;;;;;33.13;26.15;99411.94;5100185;28;20050;-68
2022/08/10 07:42:22;;;;;;;3.22;1.00;;;;;;;33.72;25.52;99408.22;5098301;28;19916;-73
2022/08/10 07:44:49;;;;;;;2.33;1.27;;;;;;;34.53;24.76;99406.78;5090080;28;20071;-70
2022/08/10 07:47:19;;;;;;;2.55;1.02;;;;;;;33.50;25.52;99409.38;5095156;28;20047;-70
2022/08/10 07:49:48;;;;;;;1.55;0.90;;;;;;;32.76;26.29;99403.22;5093631;28;20039;-71
2022/08/10 07:52:13;;;;;;;1.90;1.00;;;;;;;32.75;26.62;99407.19;5098051;28;20081;-71
2022/08/10 07:54:46;;;;;;;6.57;1.10;;;;;;;34.38;24.91;99408.28;5099564;28;20024;-71
2022/08/10 07:57:18;;;;;;;1.88;1.13;;;;;;;35.42;23.89;99416.53;5104227;28;20023;-70
2022/08/10 07:59:47;;;;;;;3.97;0.93;;;;;;;34.18;25.21;99409.16;5096149;28;20035;-70
2022/08/10 08:02:22;;;;;;;2.58;0.90;;;;;;;35.02;24.42;99408.84;5097943;28;20507;-70
2022/08/10 08:04:48;;;;;;;2.13;0.98;;;;;;;35.62;23.86;99411.97;5094855;28;20035;-71
2022/08/10 08:07:15;;;;;;;1.70;1.10;;;;;;;36.33;23.04;99405.56;5093741;27;20055;-70
2022/08/10 08:09:41;;;;;;;4.30;1.00;;;;;;;35.07;23.84;99408.59;5096002;28;20396;-70
2022/08/10 08:12:08;;;;;;;3.13;0.93;;;;;;;35.20;23.59;99409.44;5095415;28;20042;-73
2022/08/10 08:14:34;;;;;;;1.20;0.88;;;;;;;35.11;24.18;99413.19;5096883;28;20035;-72
2022/08/10 08:17:00;;;;;;;2.13;0.93;;;;;;;35.26;23.41;99406.00;5090166;28;20069;-71
2022/08/10 08:19:28;;;;;;;2.03;0.85;;;;;;;35.19;23.19;99407.78;5096713;28;20491;-69
2022/08/10 08:21:54;;;;;;;1.00;0.80;;;;;;;33.23;25.43;99405.94;5091718;28;20035;-70
2022/08/10 08:24:22;;;;;;;2.17;0.93;;;;;;;34.00;25.41;99409.31;5094986;28;20031;-72
2022/08/10 08:26:49;;;;;;;1.77;1.02;;;;;;;35.90;22.88;99418.44;5097936;28;20055;-71
2022/08/10 08:29:14;;;;;;;2.47;0.70;;;;;;;36.15;21.97;99405.06;5079073;28;20115;-74
2022/08/10 08:31:42;;;;;;;1.38;0.77;;;;;;;34.69;23.91;99410.59;5102461;28;20103;-73
2022/08/10 08:34:11;;;;;;;5.25;0.70;;;;;;;35.05;23.50;99417.38;5098298;28;20679;-72
2022/08/10 08:36:39;;;;;;;2.67;1.10;;;;;;;34.23;23.45;99418.19;5096209;28;20024;-72
2022/08/10 08:39:05;;;;;;;3.05;0.90;;;;;;;33.63;24.21;99396.28;5098653;28;20524;-75
2022/08/10 08:41:39;;;;;;;4.82;1.00;;;;;;;33.42;24.08;99415.88;5103316;28;20182;-77
2022/08/10 08:44:12;;;;;;;2.60;1.15;;;;;;;34.44;23.48;99406.88;5098986;28;20107;-79
2022/08/10 08:47:05;;;;;;;2.20;0.80;;;;;;;34.33;23.30;99404.88;5104626;28;20401;-78
2022/08/10 08:50:05;;;;;;;1.58;1.10;;;;;;;33.67;23.94;99409.28;5098151;28;20027;-79
2022/08/10 08:53:06;;;;;;;1.45;1.00;;;;;;;35.00;22.81;99411.97;5091415;28;20068;-76
2022/08/10 08:56:01;;;;;;;1.95;0.85;;;;;;;36.40;21.87;99400.13;5077060;28;20043;-73
2022/08/10 08:58:30;;;;;;;4.25;0.95;;;;;;;37.70;20.65;99399.25;5098455;28;20031;-77
2022/08/10 09:01:06;;;;;;;1.90;1.02;;;;;;;37.33;20.55;99392.34;5102297;28;20524;-71
2022/08/10 09:04:04;;;;;;;1.88;0.88;;;;;;;37.54;20.16;99392.03;5092412;28;20023;-72
2022/08/10 09:06:44;;;;;;;3.15;0.88;;;;;;;37.55;20.33;99388.03;5101159;28;20507;-72
2022/08/10 09:09:18;;;;;;;4.43;0.90;;;;;;;36.04;21.11;99389.84;5095679;28;20747;-72
2022/08/10 09:12:21;;;;;;;3.00;0.90;;;;;;;35.65;21.42;99383.09;5087637;28;20076;-72
2022/08/10 09:15:04;;;;;;;2.33;0.90;;;;;;;35.78;20.75;99387.50;5102067;28;20055;-75
2022/08/10 09:18:03;;;;;;;4.60;0.80;;;;;;;35.58;21.45;99394.13;5094618;28;20048;-75
2022/08/10 09:21:03;;;;;;;1.02;0.80;;;;;;;35.02;21.19;99391.97;5098415;28;20028;-76
2022/08/10 09:23:43;;;;;;;6.10;1.25;;;;;;;34.67;21.61;99382.00;5099098;28;20043;-75
2022/08/10 09:26:21;;;;;;;1.70;0.80;;;;;;;34.72;21.41;99375.34;5080527;28;20031;-76
2022/08/10 09:28:48;;;;;;;1.40;0.90;;;;;;;35.66;20.75;99370.63;5092110;28;20051;-76
2022/08/10 09:31:19;;;;;;;4.78;1.05;;;;;;;37.25;19.55;99378.06;5079618;28;20015;-75
2022/08/10 09:34:10;;;;;;;3.03;0.95;;;;;;;37.08;18.94;99384.13;5092735;28;20073;-75
2022/08/10 09:36:41;;;;;;;2.40;0.90;;;;;;;36.26;19.45;99382.00;5098686;28;20039;-72
2022/08/10 09:39:11;;;;;;;3.28;0.80;;;;;;;36.41;19.42;99373.56;5096687;28;20405;-75
2022/08/10 09:42:14;;;;;;;3.17;1.00;;;;;;;35.93;20.04;99372.66;5099021;28;20028;-71
2022/08/10 09:44:58;;;;;;;6.88;1.00;;;;;;;36.70;19.27;99360.22;5097063;28;20028;-71
2022/08/10 09:47:33;;;;;;;1.10;0.80;;;;;;;37.43;18.95;99352.25;5096248;28;20030;-71
2022/08/10 09:50:23;;;;;;;2.90;1.00;;;;;;;36.95;18.96;99379.75;5091116;28;20058;-71
2022/08/10 09:53:19;;;;;;;1.10;0.80;;;;;;;37.06;18.54;99376.03;5083337;28;20039;-71
2022/08/10 09:55:51;;;;;;;5.55;0.88;;;;;;;36.28;19.41;99362.75;5103026;28;20182;-72
2022/08/10 09:58:30;;;;;;;3.03;0.90;;;;;;;36.16;19.09;99363.66;5093868;28;20603;-71
2022/08/10 10:01:10;;;;;;;1.88;0.70;;;;;;;36.82;17.19;99362.13;5095668;28;20533;-68
2022/08/10 10:03:45;;;;;;;3.92;0.80;;;;;;;35.76;18.74;99372.94;5100321;28;20028;-70
2022/08/10 10:06:30;;;;;;;2.50;0.77;;;;;;;35.45;19.24;99368.81;5100389;28;20019;-70
2022/08/10 10:09:07;;;;;;;3.45;0.73;;;;;;;35.21;19.81;99352.81;5095947;28;20359;-69
2022/08/10 10:11:43;;;;;;;1.07;0.73;;;;;;;35.84;19.39;99351.44;5092644;28;20065;-70
2022/08/10 10:14:33;;;;;;;1.10;0.68;;;;;;;37.06;18.82;99355.47;5097339;28;20023;-69
2022/08/10 10:17:19;;;;;;;0.90;0.68;;;;;;;35.96;19.60;99366.28;5102556;28;20118;-70
2022/08/10 10:20:01;;;;;;;3.55;0.82;;;;;;;36.49;19.37;99351.19;5106262;28;20438;-69
2022/08/10 10:22:51;;;;;;;3.05;0.73;;;;;;;36.36;19.40;99358.94;5095660;28;20456;-71
2022/08/10 10:25:26;;;;;;;1.10;0.90;;;;;;;36.42;19.36;99346.22;5092598;28;20044;-70
2022/08/10 10:28:24;;;;;;;1.35;0.60;;;;;;;36.89;19.19;99341.72;5095627;28;20024;-71
2022/08/10 10:31:27;;;;;;;2.70;1.20;;;;;;;37.63;19.00;99345.44;5071886;28;20067;-71
2022/08/10 10:34:11;;;;;;;1.33;0.82;;;;;;;38.09;18.18;99328.59;5092713;28;20047;-69
2022/08/10 10:36:40;;;;;;;1.35;0.57;;;;;;;39.08;17.55;99321.38;5099499;28;20027;-74
2022/08/10 10:39:06;;;;;;;2.20;0.80;;;;;;;38.01;18.40;99326.03;5100162;28;20089;-70
2022/08/10 10:42:12;;;;;;;0.93;0.60;;;;;;;36.58;19.57;99329.31;5099078;28;20024;-71
2022/08/10 10:45:05;;;;;;;1.52;0.90;;;;;;;36.95;19.11;99334.63;5054333;28;20036;-71
2022/08/10 10:47:30;;;;;;;4.80;0.80;;;;;;;36.77;18.43;99326.56;5093932;28;20398;-70
2022/08/10 10:50:04;;;;;;;2.30;0.80;;;;;;;36.37;18.74;99323.94;5103647;28;20058;-71
2022/08/10 10:52:51;;;;;;;2.63;0.90;;;;;;;35.88;19.36;99325.03;5103135;28;20119;-72
2022/08/10 10:55:22;;;;;;;4.85;0.93;;;;;;;36.03;18.52;99325.44;5078840;28;20033;-71
2022/08/10 10:57:50;;;;;;;3.00;0.68;;;;;;;37.70;17.66;99328.66;5095162;28;20032;-71
2022/08/10 11:00:20;;;;;;;2.15;0.77;;;;;;;37.63;17.55;99325.69;5087962;28;20027;-72
2022/08/10 11:03:12;;;;;;;1.90;0.68;;;;;;;37.37;18.53;99323.50;5093848;28;20050;-70
2022/08/10 11:06:13;;;;;;;1.75;0.90;;;;;;;37.16;18.29;99329.50;5083911;28;20074;-71
2022/08/10 11:08:47;;;;;;;4.13;0.80;;;;;;;37.52;18.03;99319.03;5096804;28;20035;-76
2022/08/10 11:11:19;;;;;;;1.33;0.80;;;;;;;38.64;17.84;99316.25;5100044;28;20129;-74
2022/08/10 11:14:07;;;;;;;3.22;1.00;;;;;;;37.03;18.61;99303.41;5102740;28;20049;-72
2022/08/10 11:16:47;;;;;;;;;;;;;;;36.81;18.90;99313.38;5093900;28;20028;-73
2022/08/10 11:19:33;;;;;;;3.45;0.90;;;;;;;36.35;19.52;99298.94;5105621;28;19918;-73
2022/08/10 11:22:17;;;;;;;1.58;0.80;;;;;;;36.88;18.98;99298.59;5101951;28;20031;-74
2022/08/10 11:24:57;;;;;;;2.80;0.70;;;;;;;37.66;18.26;99298.72;5100581;28;20088;-70
2022/08/10 11:27:32;;;;;;;3.25;0.90;;;;;;;39.58;17.14;99305.06;5081376;28;20058;-73
2022/08/10 11:30:09;;;;;;;2.33;0.60;;;;;;;37.49;17.87;99297.13;5084077;28;20024;-74
2022/08/10 11:32:59;;;;;;;3.30;0.82;;;;;;;36.48;18.53;99296.03;5106072;28;20036;-73
2022/08/10 11:35:36;;;;;;;5.13;0.75;;;;;;;36.98;18.84;99308.50;5088351;28;22005;-73
2022/08/10 11:38:11;;;;;;;2.23;0.93;;;;;;;38.17;18.05;99292.00;5101471;28;20035;-75
2022/08/10 11:40:59;;;;;;;1.85;0.77;;;;;;;38.69;17.56;99284.81;5091419;28;20061;-75
2022/08/10 11:43:28;;;;;;;1.38;0.70;;;;;;;38.96;17.25;99299.78;5104397;28;20229;-72
2022/08/10 11:46:32;;;;;;;2.83;0.80;;;;;;;38.79;17.04;99282.13;5074299;28;20074;-71
2022/08/10 11:49:39;;;;;;;1.50;0.70;;;;;;;38.48;17.21;99277.63;5010956;28;20048;-70
2022/08/10 11:52:14;;;;;;;8.82;0.90;;;;;;;36.73;18.30;99302.28;5087986;28;20500;-68
2022/08/10 11:54:42;;;;;;;1.05;0.65;;;;;;;36.81;18.36;99290.81;5107257;28;20039;-68
2022/08/10 11:57:09;;;;;;;;;;;;;;;36.47;18.70;99288.72;5110132;28;20106;-68
2022/08/10 12:02:26;;;;;;;4.38;0.90;;;;;;;37.83;18.21;99288.94;5109052;28;20039;-69
2022/08/10 12:04:57;;;;;;;2.20;0.80;;;;;;;38.64;17.55;99291.59;5107311;27;20047;-68